Time;durP1;ratioP1;P1;durP2;ratioP2;P2;SDS_P1;SDS_P2;PMS_P1;PMS_P2;Temp;Humidity;BMP_temperature;BMP_pressure;BME280_temperature;BME280_humidity;BME280_pressure;Samples;Min_cycle;Max_cycle;Signal;HPM_P1;HPM_P2
2022/11/01 00:01:37;;;;;;;21.87;19.60;;;13.50;99.90;;;;;;4975794;28;20553;-65
2022/11/01 00:04:04;;;;;;;23.27;20.00;;;13.50;99.90;;;;;;4976805;28;20458;-64
2022/11/01 00:06:33;;;;;;;22.90;20.20;;;13.50;99.90;;;;;;4976501;28;20998;-65
2022/11/01 00:08:59;;;;;;;21.57;19.53;;;13.50;99.90;;;;;;4976684;28;20486;-65
2022/11/01 00:11:26;;;;;;;26.10;20.67;;;13.40;99.90;;;;;;4976366;28;20891;-64
2022/11/01 00:13:53;;;;;;;26.10;20.63;;;13.40;99.90;;;;;;4976721;28;20510;-65
2022/11/01 00:16:21;;;;;;;24.23;20.50;;;13.30;99.90;;;;;;4976605;28;20467;-65
2022/11/01 00:18:48;;;;;;;20.87;18.60;;;13.30;99.90;;;;;;4976548;28;20533;-64
2022/11/01 00:21:16;;;;;;;25.03;19.13;;;13.40;99.90;;;;;;4976444;28;20501;-65
2022/11/01 00:23:44;;;;;;;28.43;24.70;;;13.40;99.90;;;;;;4976315;28;20463;-64
2022/11/01 00:26:15;;;;;;;25.67;20.60;;;13.40;99.90;;;;;;4976443;28;20459;-65
2022/11/01 00:28:42;;;;;;;25.97;20.17;;;13.40;99.90;;;;;;4976400;28;20840;-65
2022/11/01 00:31:09;;;;;;;23.00;20.57;;;13.30;99.90;;;;;;4976275;28;20836;-66
2022/11/01 00:33:37;;;;;;;25.10;21.33;;;13.30;99.90;;;;;;4976185;28;20454;-64
2022/11/01 00:36:03;;;;;;;25.90;21.67;;;13.30;99.90;;;;;;4976176;28;20874;-64
2022/11/01 00:38:30;;;;;;;26.17;20.97;;;13.20;99.90;;;;;;4975964;28;20864;-64
2022/11/01 00:40:58;;;;;;;22.27;19.97;;;13.10;99.90;;;;;;4975808;28;20886;-65
2022/11/01 00:43:25;;;;;;;29.40;20.03;;;13.20;99.90;;;;;;4975749;28;20939;-65
2022/11/01 00:45:52;;;;;;;21.27;19.07;;;13.10;99.90;;;;;;4976084;28;20830;-66
2022/11/01 00:48:18;;;;;;;22.07;19.67;;;13.10;99.90;;;;;;4983520;28;20462;-65
2022/11/01 00:50:45;;;;;;;23.30;20.20;;;13.20;99.90;;;;;;4985541;28;20471;-65
2022/11/01 00:53:12;;;;;;;20.23;17.17;;;13.20;99.90;;;;;;4985895;28;20494;-64
2022/11/01 00:55:40;;;;;;;26.10;21.33;;;13.20;99.90;;;;;;4981631;28;20508;-65
2022/11/01 00:58:09;;;;;;;23.07;19.47;;;13.10;99.90;;;;;;4977749;28;20794;-65
2022/11/01 01:00:36;;;;;;;27.40;20.27;;;13.00;99.90;;;;;;4975565;28;20533;-66
2022/11/01 01:03:03;;;;;;;23.20;19.50;;;13.10;99.90;;;;;;4975484;28;20942;-65
2022/11/01 01:05:30;;;;;;;25.57;19.53;;;13.00;99.90;;;;;;4975566;28;20513;-65
2022/11/01 01:07:56;;;;;;;22.13;19.50;;;13.00;99.90;;;;;;4975616;28;20457;-65
2022/11/01 01:10:24;;;;;;;22.23;19.10;;;13.00;99.90;;;;;;4975153;28;20997;-66
2022/11/01 01:12:50;;;;;;;20.83;18.53;;;13.00;99.90;;;;;;4974742;28;20565;-64
2022/11/01 01:15:19;;;;;;;19.83;17.73;;;13.00;99.90;;;;;;4975492;28;20463;-65
2022/11/01 01:17:46;;;;;;;19.73;17.63;;;13.10;99.90;;;;;;4975084;28;21009;-65
2022/11/01 01:20:13;;;;;;;20.00;17.40;;;13.10;99.90;;;;;;4975367;28;20482;-66
2022/11/01 01:22:40;;;;;;;20.20;16.20;;;13.10;99.90;;;;;;4975236;28;20478;-66
2022/11/01 01:25:07;;;;;;;20.33;17.40;;;13.10;99.90;;;;;;4975459;28;20538;-66
2022/11/01 01:27:34;;;;;;;19.03;17.03;;;13.10;99.90;;;;;;4974968;28;20463;-66
2022/11/01 01:30:00;;;;;;;21.83;16.30;;;13.20;99.90;;;;;;4975299;28;20474;-65
2022/11/01 01:32:28;;;;;;;17.20;15.50;;;13.20;99.90;;;;;;4975342;28;20474;-66
2022/11/01 01:34:55;;;;;;;22.77;16.60;;;13.20;99.90;;;;;;4975336;28;20461;-65
2022/11/01 01:37:21;;;;;;;18.73;16.73;;;13.20;99.90;;;;;;4975138;28;20490;-66
2022/11/01 01:39:48;;;;;;;18.90;16.50;;;13.30;99.90;;;;;;4975093;28;20533;-65
2022/11/01 01:42:27;;;;;;;18.23;15.30;;;13.30;99.90;;;;;;4975113;28;20529;-65
2022/11/01 01:45:29;;;;;;;16.93;14.87;;;13.30;99.90;;;;;;4979472;28;20443;-65
2022/11/01 01:48:05;;;;;;;17.10;15.40;;;13.40;99.90;;;;;;4982481;28;20501;-65
2022/11/01 01:50:36;;;;;;;23.27;15.67;;;13.40;99.90;;;;;;4977175;28;20462;-66
2022/11/01 01:53:06;;;;;;;17.53;14.60;;;13.40;99.90;;;;;;4976262;28;20445;-64
2022/11/01 01:55:37;;;;;;;18.20;15.03;;;13.50;99.90;;;;;;4975340;28;20502;-65
2022/11/01 01:58:06;;;;;;;21.40;15.93;;;13.50;99.90;;;;;;4975721;28;20489;-65
2022/11/01 02:00:32;;;;;;;15.80;14.20;;;13.50;99.90;;;;;;4975097;28;20486;-65
2022/11/01 02:03:01;;;;;;;18.97;14.87;;;13.50;99.90;;;;;;4975708;28;20439;-66
2022/11/01 02:05:36;;;;;;;16.10;14.30;;;13.50;99.90;;;;;;4975186;28;20462;-67
2022/11/01 02:08:04;;;;;;;15.67;14.00;;;13.60;99.90;;;;;;4975916;28;20439;-66
2022/11/01 02:10:31;;;;;;;16.13;14.53;;;13.60;99.90;;;;;;4975277;28;20505;-65
2022/11/01 02:12:58;;;;;;;18.30;14.00;;;13.60;99.90;;;;;;4975370;28;20458;-66
2022/11/01 02:15:31;;;;;;;17.23;14.60;;;13.70;99.90;;;;;;4975477;28;20458;-66
2022/11/01 02:18:08;;;;;;;15.13;13.53;;;13.70;99.90;;;;;;4975261;28;20493;-66
2022/11/01 02:21:02;;;;;;;14.50;12.93;;;13.70;99.90;;;;;;4974620;28;20965;-66
2022/11/01 02:23:50;;;;;;;17.23;14.93;;;13.80;99.90;;;;;;4974761;28;20490;-66
2022/11/01 02:26:44;;;;;;;17.03;14.67;;;13.80;99.90;;;;;;4978580;28;20852;-65
2022/11/01 02:29:23;;;;;;;18.60;13.90;;;13.80;99.90;;;;;;4978493;28;20439;-66
2022/11/01 02:32:10;;;;;;;17.80;14.40;;;13.80;99.90;;;;;;4978417;28;20473;-66
2022/11/01 02:34:44;;;;;;;18.07;13.73;;;13.80;99.90;;;;;;4978021;28;20918;-66
2022/11/01 02:37:16;;;;;;;15.83;14.23;;;13.90;99.90;;;;;;4978445;28;20838;-65
2022/11/01 02:39:49;;;;;;;17.53;14.27;;;13.90;99.90;;;;;;4977925;28;20878;-66
2022/11/01 02:42:21;;;;;;;16.60;13.77;;;13.90;99.90;;;;;;4978216;28;20877;-66
2022/11/01 02:44:51;;;;;;;22.70;13.67;;;13.90;99.90;;;;;;4977819;28;20439;-65
2022/11/01 02:47:21;;;;;;;15.70;13.23;;;13.90;99.90;;;;;;4979211;28;20466;-66
2022/11/01 02:49:51;;;;;;;15.80;12.90;;;13.80;99.90;;;;;;4978091;28;20450;-64
2022/11/01 02:52:22;;;;;;;14.97;13.43;;;13.80;99.90;;;;;;4977929;28;20537;-67
2022/11/01 02:54:52;;;;;;;13.10;11.80;;;13.90;99.90;;;;;;4978019;28;20442;-66
2022/11/01 02:57:29;;;;;;;15.20;13.60;;;13.90;99.90;;;;;;4978060;28;20851;-65
2022/11/01 03:00:02;;;;;;;14.33;12.37;;;14.00;99.90;;;;;;4977840;28;20466;-66
2022/11/01 03:02:41;;;;;;;14.37;11.70;;;14.00;99.90;;;;;;4977476;28;20483;-65
2022/11/01 03:05:14;;;;;;;13.87;12.33;;;14.00;99.90;;;;;;4977977;28;20443;-65
2022/11/01 03:07:44;;;;;;;14.43;12.93;;;14.00;99.90;;;;;;4977770;28;20439;-66
2022/11/01 03:10:11;;;;;;;14.77;12.13;;;14.00;99.90;;;;;;4978424;28;20447;-65
2022/11/01 03:12:47;;;;;;;14.80;11.90;;;14.10;99.90;;;;;;4977763;28;20478;-65
2022/11/01 03:15:20;;;;;;;17.57;12.40;;;14.10;99.90;;;;;;4977764;28;20438;-65
2022/11/01 03:17:55;;;;;;;16.57;12.80;;;14.10;99.90;;;;;;4977578;28;20443;-65
2022/11/01 03:20:27;;;;;;;14.70;12.20;;;14.20;99.90;;;;;;4977583;28;20494;-65
2022/11/01 03:22:56;;;;;;;12.63;11.43;;;14.20;99.90;;;;;;4977648;28;20443;-64
2022/11/01 03:25:38;;;;;;;13.57;11.50;;;14.20;99.90;;;;;;4977442;28;20796;-64
2022/11/01 03:28:10;;;;;;;15.70;11.40;;;14.20;99.90;;;;;;4977558;28;20442;-65
2022/11/01 03:30:41;;;;;;;14.83;12.20;;;14.20;99.90;;;;;;4977034;28;20837;-64
2022/11/01 03:33:11;;;;;;;17.63;11.60;;;14.20;99.90;;;;;;4977459;28;20446;-66
2022/11/01 03:35:40;;;;;;;16.40;12.33;;;14.20;99.90;;;;;;4976244;28;20454;-66
2022/11/01 03:38:10;;;;;;;13.20;11.77;;;14.20;99.90;;;;;;4977255;28;20525;-65
2022/11/01 03:40:42;;;;;;;12.73;11.43;;;14.20;99.90;;;;;;4976753;28;20833;-65
2022/11/01 03:43:13;;;;;;;14.33;11.43;;;14.20;99.90;;;;;;4977239;28;20449;-65
2022/11/01 03:45:41;;;;;;;16.80;12.57;;;14.10;99.90;;;;;;4976926;28;20891;-65
2022/11/01 03:48:10;;;;;;;14.30;12.80;;;14.20;99.90;;;;;;4977041;28;20461;-65
2022/11/01 03:50:38;;;;;;;17.70;12.57;;;14.20;99.90;;;;;;4977081;28;20453;-64
2022/11/01 03:53:05;;;;;;;14.10;12.70;;;14.20;99.90;;;;;;4977077;28;20454;-64
2022/11/01 03:55:32;;;;;;;13.13;11.73;;;14.10;99.90;;;;;;4976946;28;20514;-64
2022/11/01 03:57:59;;;;;;;12.97;11.57;;;14.10;99.90;;;;;;4976821;28;20513;-65
2022/11/01 04:00:27;;;;;;;13.73;12.07;;;14.10;99.90;;;;;;4976202;28;21056;-64
2022/11/01 04:02:55;;;;;;;14.77;11.70;;;14.10;99.90;;;;;;4976803;28;20439;-65
2022/11/01 04:05:25;;;;;;;15.17;11.67;;;14.20;99.90;;;;;;4976753;28;20462;-65
2022/11/01 04:07:52;;;;;;;14.57;11.93;;;14.20;99.90;;;;;;4976815;28;20443;-64
2022/11/01 04:10:20;;;;;;;15.83;12.60;;;14.20;99.90;;;;;;4976213;28;21005;-64
2022/11/01 04:12:48;;;;;;;15.90;13.40;;;14.20;99.90;;;;;;4976612;28;20871;-64
2022/11/01 04:20:52;;;;;;;13.77;11.13;;;14.20;99.90;;;;;;4976407;28;20847;-65
2022/11/01 04:23:19;;;;;;;16.10;11.77;;;14.20;99.90;;;;;;4976495;28;20454;-65
2022/11/01 04:25:46;;;;;;;13.83;11.73;;;14.20;99.90;;;;;;4976346;28;20457;-64
2022/11/01 04:28:13;;;;;;;13.73;12.20;;;14.20;99.90;;;;;;4976319;28;20550;-65
2022/11/01 04:30:39;;;;;;;24.33;12.00;;;14.20;99.90;;;;;;4976228;28;20451;-66
2022/11/01 04:33:06;;;;;;;12.93;11.23;;;14.20;99.90;;;;;;4976131;28;20455;-65
2022/11/01 04:35:33;;;;;;;11.77;10.67;;;14.10;99.90;;;;;;4976357;28;20482;-65
2022/11/01 04:38:01;;;;;;;12.30;11.10;;;14.10;99.90;;;;;;4976286;28;20458;-65
2022/11/01 04:40:27;;;;;;;11.50;10.40;;;14.20;99.90;;;;;;4975949;28;20474;-65
2022/11/01 04:42:54;;;;;;;12.93;10.63;;;14.20;99.90;;;;;;4979089;28;20482;-66
2022/11/01 04:45:21;;;;;;;12.43;10.67;;;14.30;99.90;;;;;;4982212;28;20482;-65
2022/11/01 04:47:51;;;;;;;11.97;10.77;;;14.30;99.90;;;;;;4979684;28;20455;-65
2022/11/01 04:50:18;;;;;;;14.77;9.93;;;14.30;99.90;;;;;;4977164;28;20442;-65
2022/11/01 04:52:45;;;;;;;10.60;9.60;;;14.40;99.90;;;;;;4976440;28;21000;-65
2022/11/01 04:55:14;;;;;;;11.80;10.07;;;14.50;99.90;;;;;;4976663;28;20767;-65
2022/11/01 04:57:41;;;;;;;13.73;10.57;;;14.50;99.90;;;;;;4976790;28;20502;-65
2022/11/01 05:00:10;;;;;;;12.57;10.10;;;14.50;99.90;;;;;;4976196;28;20506;-65
2022/11/01 05:02:38;;;;;;;10.93;9.67;;;14.50;99.90;;;;;;4976056;28;20529;-65
2022/11/01 05:05:06;;;;;;;22.07;9.67;;;14.50;99.90;;;;;;4975976;28;20458;-65
2022/11/01 05:07:33;;;;;;;9.40;8.50;;;14.50;99.90;;;;;;4976067;28;20446;-65
2022/11/01 05:10:00;;;;;;;14.70;9.63;;;14.60;99.90;;;;;;4975728;28;20431;-65
2022/11/01 05:12:28;;;;;;;11.40;9.80;;;14.60;99.90;;;;;;4975809;28;20525;-65
2022/11/01 05:14:55;;;;;;;9.80;8.77;;;14.70;99.90;;;;;;4975845;28;20457;-65
2022/11/01 05:17:22;;;;;;;9.73;8.50;;;14.70;99.90;;;;;;4975724;28;20458;-66
2022/11/01 05:19:49;;;;;;;9.70;8.77;;;14.70;99.90;;;;;;4975335;28;20980;-64
2022/11/01 05:22:15;;;;;;;12.07;6.93;;;14.70;99.90;;;;;;4975694;28;20474;-65
2022/11/01 05:24:42;;;;;;;8.50;7.07;;;14.70;99.90;;;;;;4976346;28;20800;-64
2022/11/01 05:27:09;;;;;;;13.70;7.47;;;14.70;99.90;;;;;;4975566;28;20458;-66
2022/11/01 05:29:37;;;;;;;10.43;8.13;;;14.80;99.90;;;;;;4975434;28;20438;-65
2022/11/01 05:32:04;;;;;;;9.17;6.87;;;14.80;99.90;;;;;;4975490;28;20476;-66
2022/11/01 05:34:30;;;;;;;9.40;6.90;;;14.90;99.90;;;;;;4975378;28;20443;-65
2022/11/01 05:36:57;;;;;;;9.67;5.60;;;15.00;99.90;;;;;;4975207;28;20443;-65
2022/11/01 05:39:23;;;;;;;8.17;5.60;;;15.00;99.90;;;;;;4975348;28;20439;-66
2022/11/01 05:41:50;;;;;;;8.40;6.33;;;15.10;99.90;;;;;;4975068;28;20482;-65
2022/11/01 05:44:17;;;;;;;8.57;6.53;;;15.20;99.90;;;;;;4975251;28;20439;-66
2022/11/01 05:46:45;;;;;;;8.57;5.90;;;15.20;99.90;;;;;;4975204;28;20455;-65
2022/11/01 05:49:11;;;;;;;9.07;6.73;;;15.30;99.90;;;;;;4974950;28;20958;-66
2022/11/01 05:51:38;;;;;;;13.20;6.70;;;15.30;99.90;;;;;;4975161;28;20471;-65
2022/11/01 05:54:05;;;;;;;11.83;6.50;;;15.30;99.90;;;;;;4975008;28;20463;-64
2022/11/01 05:56:32;;;;;;;10.23;7.60;;;15.30;99.90;;;;;;4975012;28;20454;-66
2022/11/01 05:58:58;;;;;;;12.70;8.53;;;15.30;99.90;;;;;;4975147;28;20930;-66
2022/11/01 06:01:25;;;;;;;10.30;8.40;;;15.30;99.90;;;;;;4978669;28;20486;-65
2022/11/01 06:03:53;;;;;;;10.73;7.80;;;15.20;99.90;;;;;;4978845;28;20458;-65
2022/11/01 06:06:19;;;;;;;9.90;7.77;;;15.20;99.90;;;;;;4978867;28;20456;-65
2022/11/01 06:08:46;;;;;;;11.53;8.90;;;15.10;99.90;;;;;;4978819;28;20455;-66
2022/11/01 06:11:13;;;;;;;10.60;8.47;;;15.00;99.90;;;;;;4978615;28;20654;-64
2022/11/01 06:13:39;;;;;;;13.07;8.70;;;15.00;99.90;;;;;;4978695;28;20513;-66
2022/11/01 06:16:07;;;;;;;9.80;5.40;;;15.00;99.90;;;;;;4978431;28;21012;-65
2022/11/01 06:18:34;;;;;;;8.17;5.17;;;15.00;99.90;;;;;;4978728;28;20505;-66
2022/11/01 06:21:01;;;;;;;6.27;4.93;;;15.00;99.90;;;;;;4978515;28;20482;-66
2022/11/01 06:23:28;;;;;;;7.67;5.20;;;15.00;99.90;;;;;;4978536;28;20483;-65
2022/11/01 06:26:02;;;;;;;7.00;5.70;;;15.00;99.90;;;;;;4980322;28;20454;-66
2022/11/01 06:28:28;;;;;;;8.70;5.73;;;15.10;99.90;;;;;;4989405;28;20459;-66
2022/11/01 06:30:55;;;;;;;6.70;6.10;;;15.10;99.90;;;;;;4988288;28;20481;-66
2022/11/01 06:33:21;;;;;;;14.27;6.97;;;15.10;99.90;;;;;;4987932;28;20455;-65
2022/11/01 06:35:48;;;;;;;9.17;6.77;;;15.20;99.90;;;;;;4982108;28;20787;-66
2022/11/01 06:38:16;;;;;;;9.07;6.47;;;15.30;99.90;;;;;;4978934;28;20458;-66
2022/11/01 06:40:43;;;;;;;7.10;6.40;;;15.20;99.90;;;;;;4978389;28;20530;-65
2022/11/01 06:43:10;;;;;;;15.40;13.83;;;15.30;99.90;;;;;;4978572;28;20521;-66
2022/11/01 06:45:36;;;;;;;7.93;7.13;;;15.30;99.90;;;;;;4978146;28;20479;-66
2022/11/01 06:48:03;;;;;;;9.33;6.00;;;15.30;99.90;;;;;;4978116;28;20458;-66
2022/11/01 06:50:30;;;;;;;5.93;5.37;;;15.30;99.90;;;;;;4978101;28;20454;-65
2022/11/01 06:52:57;;;;;;;8.77;5.70;;;15.30;99.90;;;;;;4978055;28;20459;-66
2022/11/01 06:55:26;;;;;;;4.37;3.97;;;15.30;99.90;;;;;;4978064;28;20463;-66
2022/11/01 06:57:53;;;;;;;5.70;4.40;;;15.30;99.90;;;;;;4977971;28;20461;-66
2022/11/01 07:00:20;;;;;;;8.77;5.37;;;15.40;99.90;;;;;;4977696;28;20522;-66
2022/11/01 07:02:47;;;;;;;11.17;5.90;;;15.40;99.90;;;;;;4977818;28;20474;-66
2022/11/01 07:05:14;;;;;;;9.50;5.20;;;15.40;99.90;;;;;;4977921;28;20525;-67
2022/11/01 07:07:41;;;;;;;5.93;4.80;;;15.30;99.90;;;;;;4977906;28;20501;-66
2022/11/01 07:10:08;;;;;;;7.17;5.37;;;15.30;99.90;;;;;;4977970;28;20485;-66
2022/11/01 07:12:36;;;;;;;8.33;5.17;;;15.30;99.90;;;;;;4977973;28;20553;-66
2022/11/01 07:15:03;;;;;;;5.73;4.77;;;15.30;99.90;;;;;;4977900;28;20462;-66
2022/11/01 07:17:30;;;;;;;6.00;4.33;;;15.30;99.90;;;;;;4978182;28;20458;-66
2022/11/01 07:19:57;;;;;;;5.53;4.47;;;15.40;99.90;;;;;;4977781;28;20465;-66
2022/11/01 07:22:23;;;;;;;6.10;4.20;;;15.40;99.90;;;;;;4977432;28;20533;-67
2022/11/01 07:24:50;;;;;;;6.07;4.63;;;15.50;99.90;;;;;;4977972;28;20458;-66
2022/11/01 07:27:17;;;;;;;8.60;5.10;;;15.60;99.90;;;;;;4977599;28;20525;-64
2022/11/01 07:29:44;;;;;;;9.03;3.77;;;15.60;99.90;;;;;;4977654;28;20549;-66
2022/11/01 07:32:11;;;;;;;3.67;3.37;;;15.70;99.90;;;;;;4977500;28;20470;-66
2022/11/01 07:34:38;;;;;;;3.63;2.70;;;15.70;99.90;;;;;;4977106;28;20490;-66
2022/11/01 07:37:04;;;;;;;2.90;2.70;;;15.80;99.90;;;;;;4977493;28;20458;-66
2022/11/01 07:39:31;;;;;;;2.63;2.23;;;15.90;99.90;;;;;;4977392;28;20463;-66
2022/11/01 07:41:58;;;;;;;2.70;2.50;;;15.90;99.90;;;;;;4977195;28;20482;-65
2022/11/01 07:44:25;;;;;;;2.70;2.50;;;16.10;99.90;;;;;;4976870;28;20513;-66
2022/11/01 07:46:53;;;;;;;5.63;3.67;;;16.10;99.90;;;;;;4977300;28;20533;-66
2022/11/01 07:49:19;;;;;;;2.97;2.77;;;16.30;99.90;;;;;;4976844;28;20938;-66
2022/11/01 07:51:46;;;;;;;2.40;2.23;;;16.30;99.90;;;;;;4977286;28;20474;-67
2022/11/01 07:54:13;;;;;;;2.30;1.93;;;16.40;99.90;;;;;;4976992;28;20517;-65
2022/11/01 07:56:39;;;;;;;1.80;1.70;;;16.50;99.90;;;;;;4976935;28;20455;-65
2022/11/01 07:59:07;;;;;;;1.47;1.37;;;16.60;99.90;;;;;;4976938;28;20852;-66
2022/11/01 08:01:34;;;;;;;1.30;1.20;;;16.70;99.90;;;;;;4976649;28;20494;-66
2022/11/01 08:04:02;;;;;;;1.00;1.00;;;16.80;99.90;;;;;;4976688;28;20485;-66
2022/11/01 08:06:29;;;;;;;1.00;1.00;;;16.90;99.90;;;;;;4976458;28;20946;-66
2022/11/01 08:08:55;;;;;;;0.73;0.70;;;17.00;99.90;;;;;;4976663;28;20513;-65
2022/11/01 08:11:22;;;;;;;2.73;0.80;;;17.00;99.90;;;;;;4976666;28;20475;-67
2022/11/01 08:13:48;;;;;;;0.80;0.80;;;17.10;99.90;;;;;;4976844;28;20454;-66
2022/11/01 08:16:16;;;;;;;0.87;0.87;;;17.20;99.90;;;;;;4976524;28;20463;-65
2022/11/01 08:18:43;;;;;;;0.80;0.80;;;17.30;99.90;;;;;;4976563;28;20547;-65
2022/11/01 08:21:17;;;;;;;1.03;1.03;;;17.40;99.90;;;;;;4976200;28;20553;-66
2022/11/01 08:23:44;;;;;;;1.00;1.00;;;17.50;99.90;;;;;;4976259;28;20494;-66
2022/11/01 08:26:11;;;;;;;1.40;1.30;;;17.60;99.90;;;;;;4976890;28;20450;-66
2022/11/01 08:28:38;;;;;;;2.90;2.00;;;17.70;99.90;;;;;;4977892;28;20494;-65
2022/11/01 08:31:06;;;;;;;2.10;1.90;;;17.80;99.90;;;;;;4976074;28;20525;-66
2022/11/01 08:33:33;;;;;;;3.33;2.23;;;17.80;99.90;;;;;;4976208;28;20542;-66
2022/11/01 08:36:00;;;;;;;2.27;1.80;;;17.90;99.90;;;;;;4976094;28;20459;-66
2022/11/01 08:38:28;;;;;;;2.40;2.30;;;18.00;99.90;;;;;;4975738;28;20800;-65
2022/11/01 08:40:56;;;;;;;2.03;1.90;;;18.20;99.90;;;;;;4975994;28;20533;-66
2022/11/01 08:43:22;;;;;;;3.60;2.23;;;18.20;99.90;;;;;;4976778;28;20459;-66
2022/11/01 08:45:49;;;;;;;3.40;2.57;;;18.40;99.90;;;;;;4976030;28;20459;-65
2022/11/01 08:48:16;;;;;;;2.17;2.07;;;18.50;99.90;;;;;;4975927;28;20459;-65
2022/11/01 08:50:43;;;;;;;2.10;2.00;;;18.70;99.90;;;;;;4976120;28;20509;-67
2022/11/01 08:53:11;;;;;;;3.87;1.37;;;18.80;99.90;;;;;;4976021;28;20443;-66
2022/11/01 08:55:39;;;;;;;0.90;0.90;;;18.70;99.90;;;;;;4975730;28;20455;-66
2022/11/01 08:58:06;;;;;;;3.37;1.67;;;18.70;99.90;;;;;;4975699;28;20459;-66
2022/11/01 09:00:33;;;;;;;1.63;1.00;;;18.70;99.90;;;;;;4975265;28;21014;-65
2022/11/01 09:03:00;;;;;;;2.60;1.10;;;18.70;99.90;;;;;;4975777;28;20808;-65
2022/11/01 09:05:30;;;;;;;0.90;0.90;;;18.60;99.90;;;;;;4975643;28;20458;-65
2022/11/01 09:07:57;;;;;;;1.77;1.07;;;18.60;99.90;;;;;;4975160;28;20962;-65
2022/11/01 09:10:27;;;;;;;1.00;1.00;;;18.50;99.90;;;;;;4975555;28;20543;-65
2022/11/01 09:12:55;;;;;;;1.00;1.00;;;18.40;99.90;;;;;;4975450;28;20450;-65
2022/11/01 09:15:22;;;;;;;1.20;1.10;;;18.50;99.90;;;;;;4975004;28;20950;-65
2022/11/01 09:17:48;;;;;;;2.60;1.00;;;18.50;99.90;;;;;;4975233;28;20804;-65
2022/11/01 09:20:15;;;;;;;1.00;0.63;;;18.40;99.90;;;;;;4976232;28;20466;-65
2022/11/01 09:22:42;;;;;;;1.00;1.00;;;18.50;99.90;;;;;;4975243;28;20478;-65
2022/11/01 09:25:11;;;;;;;3.40;0.73;;;18.40;99.90;;;;;;4975275;28;20505;-65
2022/11/01 09:27:38;;;;;;;2.20;1.33;;;18.50;99.90;;;;;;4974914;28;20942;-65
2022/11/01 09:30:07;;;;;;;1.70;0.70;;;18.60;99.90;;;;;;4974891;28;20541;-65
2022/11/01 09:32:33;;;;;;;1.23;0.97;;;18.60;99.90;;;;;;4975234;28;20490;-65
2022/11/01 09:35:00;;;;;;;2.20;1.00;;;18.60;99.90;;;;;;4975691;28;20458;-66
2022/11/01 09:37:27;;;;;;;2.00;0.97;;;18.90;99.90;;;;;;4974871;28;20891;-67
2022/11/01 09:39:53;;;;;;;0.70;0.70;;;19.30;99.90;;;;;;4974844;28;20938;-65
2022/11/01 09:42:25;;;;;;;1.90;0.90;;;19.80;99.90;;;;;;4975100;28;20479;-65
2022/11/01 09:44:54;;;;;;;1.07;0.70;;;20.30;99.90;;;;;;4974874;28;20490;-66
2022/11/01 09:47:25;;;;;;;1.03;1.03;;;20.60;99.90;;;;;;4975265;28;20454;-66
2022/11/01 09:49:59;;;;;;;2.10;0.93;;;20.70;99.90;;;;;;4975024;28;20443;-66
2022/11/01 09:52:26;;;;;;;2.07;1.00;;;20.80;99.90;;;;;;4974986;28;20471;-66
2022/11/01 09:54:53;;;;;;;0.90;0.90;;;21.10;99.90;;;;;;4974931;28;20505;-66
2022/11/01 09:57:25;;;;;;;1.63;1.00;;;21.40;99.90;;;;;;4974806;28;20486;-66
2022/11/01 10:00:02;;;;;;;2.93;0.83;;;21.90;99.90;;;;;;4974911;28;20446;-66
2022/11/01 10:03:14;;;;;;;1.57;1.00;;;22.40;99.90;;;;;;4974382;28;20487;-66
2022/11/01 10:05:51;;;;;;;0.80;0.80;;;23.10;99.90;;;;;;4974927;28;20471;-66
2022/11/01 10:08:31;;;;;;;0.80;0.80;;;23.80;99.90;;;;;;4974998;28;20764;-67
2022/11/01 10:11:11;;;;;;;1.07;0.97;;;24.10;99.90;;;;;;4975998;28;20485;-67
2022/11/01 10:13:47;;;;;;;0.97;0.97;;;24.30;99.90;;;;;;4974483;28;20841;-65
2022/11/01 10:16:23;;;;;;;1.00;1.00;;;24.20;99.90;;;;;;4974783;28;20438;-65
2022/11/01 10:18:57;;;;;;;0.90;0.90;;;23.90;99.90;;;;;;4974855;28;20504;-67
2022/11/01 10:21:27;;;;;;;2.33;0.97;;;23.50;99.90;;;;;;4975249;28;20555;-66
2022/11/01 10:23:55;;;;;;;1.10;0.97;;;23.20;99.90;;;;;;4974667;28;20486;-66
2022/11/01 10:26:27;;;;;;;1.23;1.10;;;22.70;99.90;;;;;;4974648;28;20458;-66
2022/11/01 10:29:01;;;;;;;3.17;1.77;;;22.40;99.90;;;;;;4974430;28;20911;-66
2022/11/01 10:31:29;;;;;;;1.57;1.40;;;22.20;99.90;;;;;;4974521;28;20489;-66
2022/11/01 10:34:02;;;;;;;3.23;1.43;;;22.20;99.90;;;;;;4974164;28;20954;-66
2022/11/01 10:36:33;;;;;;;3.37;2.13;;;22.20;99.90;;;;;;4974274;28;20969;-66
2022/11/01 10:39:15;;;;;;;2.00;1.10;;;22.10;99.90;;;;;;4975024;28;20469;-65
2022/11/01 10:41:46;;;;;;;4.63;1.40;;;22.00;99.90;;;;;;4974199;28;20494;-65
2022/11/01 10:44:15;;;;;;;0.97;0.87;;;21.90;99.90;;;;;;4974377;28;20443;-66
2022/11/01 10:46:45;;;;;;;3.30;1.50;;;21.70;99.90;;;;;;4977507;28;20510;-66
2022/11/01 10:49:22;;;;;;;2.00;1.37;;;21.70;99.90;;;;;;4978055;28;20529;-67
2022/11/01 10:51:51;;;;;;;3.47;1.87;;;21.70;99.90;;;;;;4978835;28;20470;-67
2022/11/01 10:54:23;;;;;;;1.73;1.63;;;21.70;99.90;;;;;;4977908;28;21000;-66
2022/11/01 10:56:53;;;;;;;3.17;1.53;;;21.50;99.90;;;;;;4978539;28;20915;-66
2022/11/01 10:59:24;;;;;;;1.30;1.20;;;21.50;99.90;;;;;;4978600;28;20439;-65
2022/11/01 11:01:53;;;;;;;4.83;1.50;;;21.50;99.90;;;;;;4977262;28;20516;-66
2022/11/01 11:04:23;;;;;;;3.17;1.33;;;21.50;99.90;;;;;;4977738;28;20454;-66
2022/11/01 11:06:51;;;;;;;3.50;1.40;;;21.40;99.90;;;;;;4977850;28;20443;-66
2022/11/01 11:09:24;;;;;;;2.27;1.50;;;21.30;99.90;;;;;;4978996;28;20457;-66
2022/11/01 11:11:53;;;;;;;3.30;2.07;;;21.30;99.90;;;;;;4978351;28;20478;-66
2022/11/01 11:14:20;;;;;;;2.43;1.10;;;21.30;99.90;;;;;;4978662;28;20518;-66
2022/11/01 11:16:51;;;;;;;3.47;1.37;;;21.20;99.90;;;;;;4978575;28;20462;-68
2022/11/01 11:19:31;;;;;;;2.00;1.27;;;21.20;99.90;;;;;;4978706;28;20450;-66
2022/11/01 11:21:59;;;;;;;2.13;1.50;;;21.20;99.90;;;;;;4978017;28;20486;-66
2022/11/01 11:24:31;;;;;;;4.30;1.57;;;21.20;99.90;;;;;;4977752;28;20509;-66
2022/11/01 11:26:58;;;;;;;1.63;1.50;;;21.10;99.90;;;;;;4977928;28;20439;-66
2022/11/01 11:29:35;;;;;;;1.73;1.63;;;21.10;99.90;;;;;;4977924;28;20458;-66
2022/11/01 11:32:02;;;;;;;2.03;1.40;;;21.10;99.90;;;;;;4977529;28;21036;-67
2022/11/01 11:34:33;;;;;;;2.30;1.30;;;21.00;99.90;;;;;;4977438;28;20463;-67
2022/11/01 11:37:02;;;;;;;1.73;1.20;;;20.90;99.90;;;;;;4977372;28;20443;-67
2022/11/01 11:39:30;;;;;;;2.13;1.67;;;20.90;99.90;;;;;;4977260;28;20545;-67
2022/11/01 11:42:12;;;;;;;3.10;1.90;;;20.80;99.90;;;;;;4977207;28;20474;-67
2022/11/01 11:44:42;;;;;;;2.10;1.70;;;20.70;99.90;;;;;;4977153;28;20435;-66
2022/11/01 11:47:23;;;;;;;2.13;1.33;;;20.70;99.90;;;;;;4977490;28;20505;-67
2022/11/01 11:49:52;;;;;;;2.83;1.53;;;20.70;99.90;;;;;;4977759;28;20450;-67
2022/11/01 11:52:22;;;;;;;2.20;2.07;;;20.60;99.90;;;;;;4976952;28;20477;-66
2022/11/01 11:54:48;;;;;;;2.10;1.67;;;20.60;99.90;;;;;;4976661;28;20509;-67
2022/11/01 11:57:19;;;;;;;2.20;2.00;;;20.50;99.90;;;;;;4976990;28;20873;-66
2022/11/01 11:59:51;;;;;;;3.00;2.10;;;20.50;99.90;;;;;;4978208;28;20531;-67
2022/11/01 12:02:22;;;;;;;2.40;1.73;;;20.20;99.90;;;;;;4976770;28;20486;-66
2022/11/01 12:04:55;;;;;;;3.47;2.07;;;19.90;99.90;;;;;;4977836;28;20443;-67
2022/11/01 12:07:27;;;;;;;6.03;1.60;;;19.70;99.90;;;;;;4977090;28;20467;-67
2022/11/01 12:09:55;;;;;;;4.30;2.10;;;19.50;99.90;;;;;;4976567;28;20922;-67
2022/11/01 12:12:25;;;;;;;5.70;2.33;;;19.40;99.90;;;;;;4976672;28;20549;-67
2022/11/01 12:14:52;;;;;;;2.20;1.90;;;19.30;99.90;;;;;;4976705;28;20522;-66
2022/11/01 12:17:27;;;;;;;4.17;2.23;;;19.20;99.90;;;;;;4976638;28;20458;-66
2022/11/01 12:20:08;;;;;;;4.37;2.20;;;19.00;99.90;;;;;;4976558;28;20528;-66
2022/11/01 12:22:37;;;;;;;1.80;1.50;;;18.90;99.90;;;;;;4976468;28;20493;-65
2022/11/01 12:25:10;;;;;;;3.33;2.33;;;18.80;99.90;;;;;;4977071;28;20455;-66
2022/11/01 12:27:37;;;;;;;3.40;1.97;;;18.70;99.90;;;;;;4977934;28;20450;-65
2022/11/01 12:30:09;;;;;;;3.77;1.97;;;18.60;99.90;;;;;;4976384;28;20965;-67
2022/11/01 12:32:47;;;;;;;3.20;1.67;;;18.50;99.90;;;;;;4976321;28;20512;-66
2022/11/01 12:35:21;;;;;;;3.33;1.60;;;18.30;99.90;;;;;;4975900;28;20464;-66
2022/11/01 12:37:55;;;;;;;8.00;2.53;;;18.10;99.90;;;;;;4976121;28;20525;-66
2022/11/01 12:40:26;;;;;;;3.60;1.90;;;18.10;99.90;;;;;;4976083;28;20447;-67
2022/11/01 12:43:00;;;;;;;8.00;2.73;;;18.10;99.90;;;;;;4976014;28;20805;-64
2022/11/01 12:45:29;;;;;;;6.07;2.20;;;18.10;99.90;;;;;;4976072;28;20538;-66
2022/11/01 12:48:00;;;;;;;3.60;2.13;;;18.20;99.90;;;;;;4976042;28;20513;-67
2022/11/01 12:50:35;;;;;;;7.63;1.60;;;18.10;99.90;;;;;;4975987;28;20530;-66
2022/11/01 12:53:06;;;;;;;3.20;2.00;;;18.10;99.90;;;;;;4977012;28;20442;-66
2022/11/01 12:55:35;;;;;;;5.60;2.23;;;18.10;99.90;;;;;;4976487;28;20443;-67